createdAt,value
2023-08-17T00:00:04.033Z,67.08
2023-08-17T00:02:31.033Z,67.66
2023-08-17T00:04:58.065Z,67.33
2023-08-17T00:07:28.077Z,67.63
2023-08-17T00:09:55.283Z,67.26
2023-08-17T00:12:22.326Z,66.79
2023-08-17T00:14:49.504Z,67.72
2023-08-17T00:17:16.526Z,68.03
2023-08-17T00:19:43.686Z,67.49
2023-08-17T00:22:10.928Z,67.93
2023-08-17T00:24:40.607Z,67.76
2023-08-17T00:27:07.670Z,67.30
2023-08-17T00:29:34.726Z,68.16
2023-08-17T00:32:01.827Z,68.79
2023-08-17T00:34:29.062Z,68.70
2023-08-17T00:36:56.125Z,68.79
2023-08-17T00:39:23.132Z,69.04
2023-08-17T00:41:53.046Z,68.35
2023-08-17T00:44:20.488Z,68.48
2023-08-17T00:46:47.578Z,68.92
2023-08-17T00:49:15.004Z,68.82
2023-08-17T00:51:42.634Z,68.92
2023-08-17T00:54:11.859Z,68.87
2023-08-17T00:56:39.098Z,68.90
2023-08-17T00:59:09.948Z,69.33
2023-08-17T01:01:37.236Z,68.91
2023-08-17T01:04:04.818Z,69.27
2023-08-17T01:06:31.859Z,69.33
2023-08-17T01:08:59.064Z,69.70
2023-08-17T01:11:35.747Z,69.67
2023-08-17T01:14:11.315Z,69.68
2023-08-17T01:16:45.077Z,69.93
2023-08-17T01:19:19.747Z,69.42
2023-08-17T01:21:51.898Z,68.91
2023-08-17T01:24:21.560Z,69.63
2023-08-17T01:26:48.568Z,69.73
2023-08-17T01:29:16.350Z,69.38
2023-08-17T01:31:55.321Z,69.67
2023-08-17T01:34:27.716Z,69.34
2023-08-17T01:36:58.658Z,69.72
2023-08-17T01:39:41.632Z,70.40
2023-08-17T01:42:09.748Z,69.54
2023-08-17T01:44:37.104Z,69.81
2023-08-17T01:47:04.641Z,69.58
2023-08-17T01:49:31.671Z,70.03
2023-08-17T01:51:58.740Z,70.06
2023-08-17T01:54:28.440Z,70.16
2023-08-17T01:56:55.478Z,70.06
2023-08-17T01:59:22.547Z,70.81
2023-08-17T02:01:49.574Z,70.22
2023-08-17T02:04:17.240Z,70.32
2023-08-17T02:06:44.242Z,70.08
2023-08-17T02:09:11.453Z,70.31
2023-08-17T02:11:41.065Z,69.99
2023-08-17T02:14:08.152Z,70.61
2023-08-17T02:16:35.266Z,70.38
2023-08-17T02:19:02.373Z,70.47
2023-08-17T02:21:29.445Z,70.89
2023-08-17T02:23:56.484Z,70.83
2023-08-17T02:26:23.541Z,70.28
2023-08-17T02:28:53.276Z,71.00
2023-08-17T02:31:20.407Z,70.17
2023-08-17T02:33:47.417Z,70.71
2023-08-17T02:36:14.491Z,70.63
2023-08-17T02:38:41.604Z,70.93
2023-08-17T02:41:08.846Z,70.84
2023-08-17T02:43:35.909Z,71.08
2023-08-17T02:46:05.666Z,71.60
2023-08-17T02:48:33.302Z,71.91
2023-08-17T02:51:00.588Z,71.50
2023-08-17T02:53:27.645Z,71.75
2023-08-17T02:55:54.665Z,71.44
2023-08-17T02:58:21.833Z,71.98
2023-08-17T03:00:48.890Z,71.80
2023-08-17T03:03:18.578Z,72.01
2023-08-17T03:05:45.654Z,72.20
2023-08-17T03:08:12.779Z,72.13
2023-08-17T03:10:39.849Z,72.39
2023-08-17T03:13:06.917Z,72.23
2023-08-17T03:15:34.069Z,72.49
2023-08-17T03:18:01.214Z,72.42
2023-08-17T03:20:30.904Z,72.97
2023-08-17T03:22:57.978Z,72.70
2023-08-17T03:25:25.104Z,73.01
2023-08-17T03:27:52.175Z,73.00
2023-08-17T03:30:19.273Z,73.42
2023-08-17T03:32:46.306Z,73.44
2023-08-17T03:35:13.506Z,73.91
2023-08-17T03:37:43.236Z,73.77
2023-08-17T03:40:10.653Z,73.54
2023-08-17T03:42:37.659Z,73.76
2023-08-17T03:45:06.065Z,73.54
2023-08-17T03:47:33.138Z,73.73
2023-08-17T03:50:00.230Z,73.97
2023-08-17T03:52:27.310Z,73.76
2023-08-17T03:54:56.986Z,74.09
2023-08-17T03:57:24.168Z,73.58
2023-08-17T03:59:51.500Z,73.44
2023-08-17T04:02:18.495Z,74.11
2023-08-17T04:04:45.537Z,73.95
2023-08-17T04:07:12.670Z,73.80
2023-08-17T04:09:44.635Z,73.54
2023-08-17T04:12:14.284Z,73.79
2023-08-17T04:14:41.327Z,74.12
2023-08-17T04:17:08.430Z,73.97
2023-08-17T04:19:35.462Z,74.54
2023-08-17T04:22:02.526Z,73.90
2023-08-17T04:24:29.568Z,74.13
2023-08-17T04:26:56.830Z,73.84
2023-08-17T04:29:26.510Z,73.80
2023-08-17T04:31:54.310Z,74.49
2023-08-17T04:34:21.502Z,74.53
2023-08-17T04:36:48.569Z,75.31
2023-08-17T04:39:15.686Z,74.91
2023-08-17T04:41:42.975Z,74.94
2023-08-17T04:44:10.078Z,74.36
2023-08-17T04:46:39.765Z,74.35
2023-08-17T04:49:06.849Z,74.52
2023-08-17T04:51:33.882Z,73.79
2023-08-17T04:54:00.948Z,73.37
2023-08-17T04:56:28.018Z,72.91
2023-08-17T04:58:55.107Z,72.66
2023-08-17T05:01:22.171Z,73.52
2023-08-17T05:03:51.931Z,72.95
2023-08-17T05:06:19.046Z,72.62
2023-08-17T05:08:46.066Z,72.18
2023-08-17T05:11:13.315Z,72.28
2023-08-17T05:13:40.348Z,72.77
2023-08-17T05:16:07.473Z,72.92
2023-08-17T05:18:34.562Z,73.04
2023-08-17T05:21:04.457Z,71.52
2023-08-17T05:23:31.495Z,71.24
2023-08-17T05:25:58.671Z,72.89
2023-08-17T05:28:25.813Z,72.26
2023-08-17T05:30:52.849Z,71.26
2023-08-17T05:33:19.880Z,71.51
2023-08-17T05:35:46.908Z,71.98
2023-08-17T05:38:16.544Z,71.19
2023-08-17T05:40:43.609Z,71.20
2023-08-17T05:43:10.679Z,71.89
2023-08-17T05:45:37.698Z,72.18
2023-08-17T05:48:06.370Z,73.21
2023-08-17T05:50:33.665Z,73.16
2023-08-17T05:53:02.164Z,73.20
2023-08-17T05:55:32.432Z,73.37
2023-08-17T05:58:01.407Z,73.91
2023-08-17T06:00:28.447Z,74.31
2023-08-17T06:02:55.719Z,74.14
2023-08-17T06:05:24.671Z,74.08
2023-08-17T06:07:51.771Z,73.66
2023-08-17T06:10:18.935Z,73.42
2023-08-17T06:12:48.560Z,73.87
2023-08-17T06:15:15.943Z,74.10
2023-08-17T06:17:44.013Z,73.40
2023-08-17T06:20:13.124Z,73.84
2023-08-17T06:22:40.198Z,74.50
2023-08-17T06:25:08.304Z,73.71
2023-08-17T06:27:35.655Z,74.80
2023-08-17T06:30:06.625Z,73.48
2023-08-17T06:32:33.752Z,73.60
2023-08-17T06:35:00.951Z,73.11
2023-08-17T06:37:28.371Z,72.96
2023-08-17T06:39:55.606Z,73.75
2023-08-17T06:42:23.054Z,73.21
2023-08-17T06:44:50.136Z,72.92
2023-08-17T06:47:19.850Z,72.51
2023-08-17T06:49:47.056Z,72.99
2023-08-17T06:52:14.118Z,72.68
2023-08-17T06:54:41.139Z,72.18
2023-08-17T06:57:08.272Z,71.82
2023-08-17T06:59:35.326Z,71.21
2023-08-17T07:02:02.749Z,70.96
2023-08-17T07:04:32.637Z,70.93
2023-08-17T07:07:00.122Z,70.89
2023-08-17T07:09:27.277Z,71.06
2023-08-17T07:11:54.357Z,71.26
2023-08-17T07:14:23.089Z,71.41
2023-08-17T07:16:50.401Z,70.80
2023-08-17T07:19:17.603Z,70.83
2023-08-17T07:21:47.282Z,70.38
2023-08-17T07:24:16.627Z,70.07
2023-08-17T07:26:44.922Z,71.29
2023-08-17T07:29:12.203Z,70.38
2023-08-17T07:31:40.705Z,70.03
2023-08-17T07:34:09.459Z,70.06
2023-08-17T07:36:36.591Z,69.76
2023-08-17T07:39:06.290Z,69.47
2023-08-17T07:41:33.271Z,70.15
2023-08-17T07:44:00.363Z,69.21
2023-08-17T07:46:27.699Z,68.29
2023-08-17T07:48:54.866Z,69.20
2023-08-17T07:51:24.980Z,68.79
2023-08-17T07:53:52.149Z,68.40
2023-08-17T07:56:21.900Z,68.23
2023-08-17T07:58:50.335Z,67.10
2023-08-17T08:01:20.979Z,66.95
2023-08-17T08:03:48.089Z,67.08
2023-08-17T08:06:15.125Z,67.33
2023-08-17T08:08:42.149Z,67.72
2023-08-17T08:11:09.417Z,67.62
2023-08-17T08:13:39.195Z,68.01
2023-08-17T08:16:07.774Z,67.92
2023-08-17T08:18:34.792Z,67.52
2023-08-17T08:21:01.958Z,66.96
2023-08-17T08:23:29.081Z,66.69
2023-08-17T08:25:56.219Z,67.13
2023-08-17T08:28:23.289Z,66.89
2023-08-17T08:30:53.158Z,67.27
2023-08-17T08:33:23.539Z,66.98
2023-08-17T08:35:50.607Z,68.39
2023-08-17T08:38:17.645Z,66.96
2023-08-17T08:40:48.210Z,66.87
2023-08-17T08:43:15.998Z,66.33
2023-08-17T08:45:43.536Z,65.99
2023-08-17T08:48:14.943Z,65.69
2023-08-17T08:50:42.495Z,65.76
2023-08-17T08:53:15.011Z,65.67
2023-08-17T08:55:48.740Z,66.03
2023-08-17T08:58:17.586Z,65.75
2023-08-17T09:00:48.283Z,65.03
2023-08-17T09:03:19.006Z,63.42
2023-08-17T09:05:49.488Z,63.00
2023-08-17T09:08:20.112Z,62.00
2023-08-17T09:10:48.350Z,62.13
2023-08-17T09:13:15.917Z,62.30
2023-08-17T09:15:42.981Z,62.74
2023-08-17T09:18:13.787Z,62.34
2023-08-17T09:20:47.953Z,61.99
2023-08-17T09:23:17.526Z,61.89
2023-08-17T09:25:46.324Z,63.16
2023-08-17T09:28:14.626Z,62.33
2023-08-17T09:30:52.140Z,61.72
2023-08-17T09:33:19.255Z,62.30
2023-08-17T09:35:49.729Z,61.05
2023-08-17T09:38:16.788Z,60.95
2023-08-17T09:40:44.133Z,60.06
2023-08-17T09:43:12.069Z,59.63
2023-08-17T09:45:39.870Z,60.23
2023-08-17T09:48:08.437Z,59.84
2023-08-17T09:50:39.030Z,58.76
2023-08-17T09:53:13.228Z,58.86
2023-08-17T09:55:42.260Z,58.05
2023-08-17T09:58:09.289Z,58.09
2023-08-17T10:00:39.119Z,59.27
2023-08-17T10:03:08.385Z,60.06
2023-08-17T10:05:41.272Z,60.14
2023-08-17T10:08:12.923Z,57.72
2023-08-17T10:10:44.211Z,56.82
2023-08-17T10:13:12.938Z,56.23
2023-08-17T10:15:49.874Z,58.07
2023-08-17T10:18:28.023Z,57.93
2023-08-17T10:21:02.447Z,58.23
2023-08-17T10:23:33.553Z,58.91
2023-08-17T10:26:02.558Z,60.69
2023-08-17T10:28:32.047Z,58.42
2023-08-17T10:31:00.084Z,57.67
2023-08-17T10:33:29.826Z,56.74
2023-08-17T10:35:58.546Z,55.57
2023-08-17T10:38:27.351Z,53.77
2023-08-17T10:43:57.476Z,54.61
2023-08-17T10:46:35.574Z,54.21
2023-08-17T10:49:05.141Z,53.96
2023-08-17T10:51:32.303Z,52.66
2023-08-17T10:54:03.043Z,54.25
2023-08-17T10:56:34.242Z,55.35
2023-08-17T10:59:02.068Z,54.37
2023-08-17T11:01:37.441Z,55.10
2023-08-17T11:04:16.877Z,55.53
2023-08-17T11:06:44.746Z,55.84
2023-08-17T11:09:11.879Z,55.08
2023-08-17T11:11:41.814Z,54.44
2023-08-17T11:14:10.004Z,54.56
2023-08-17T11:16:37.108Z,55.47
2023-08-17T11:19:13.868Z,54.80
2023-08-17T11:21:43.288Z,53.43
2023-08-17T11:24:11.624Z,53.51
2023-08-17T11:26:42.465Z,53.55
2023-08-17T11:29:09.713Z,51.62
2023-08-17T11:31:36.849Z,52.00
2023-08-17T11:34:04.250Z,51.93
2023-08-17T11:36:31.296Z,53.06
2023-08-17T11:38:59.392Z,53.60
2023-08-17T11:41:26.596Z,54.73
2023-08-17T11:43:56.499Z,54.82
2023-08-17T11:48:55.627Z,53.31
2023-08-17T11:51:30.081Z,52.87
2023-08-17T11:54:00.098Z,52.93
2023-08-17T11:56:27.303Z,55.41
2023-08-17T11:58:56.948Z,56.65
2023-08-17T12:01:24.163Z,56.61
2023-08-17T12:03:51.577Z,55.78
2023-08-17T12:06:18.837Z,55.34
2023-08-17T12:08:48.912Z,54.28
2023-08-17T12:11:17.188Z,53.56
2023-08-17T12:13:44.350Z,53.18
2023-08-17T12:16:19.310Z,53.53
2023-08-17T12:18:46.555Z,51.10
2023-08-17T12:21:13.723Z,48.75
2023-08-17T12:23:41.246Z,46.08
2023-08-17T12:26:08.364Z,46.06
2023-08-17T12:28:35.481Z,45.58
2023-08-17T12:31:04.600Z,45.07
2023-08-17T12:33:34.377Z,45.06
2023-08-17T12:36:01.486Z,44.87
2023-08-17T12:38:28.733Z,44.77
2023-08-17T12:40:55.860Z,44.50
2023-08-17T12:43:23.022Z,43.29
2023-08-17T12:45:50.216Z,41.95
2023-08-17T12:48:17.451Z,41.08
2023-08-17T12:50:49.864Z,42.71
2023-08-17T12:53:17.086Z,40.91
2023-08-17T12:55:44.487Z,40.17
2023-08-17T12:58:11.639Z,40.12
2023-08-17T13:00:38.895Z,40.40
2023-08-17T13:03:06.167Z,41.77
2023-08-17T13:05:33.910Z,41.15
2023-08-17T13:08:04.175Z,41.35
2023-08-17T13:10:31.318Z,42.06
2023-08-17T13:12:58.493Z,41.75
2023-08-17T13:15:27.613Z,42.63
2023-08-17T13:17:57.737Z,43.66
2023-08-17T13:20:25.067Z,42.63
2023-08-17T13:22:52.098Z,41.21
2023-08-17T13:25:21.970Z,41.95
2023-08-17T13:27:49.160Z,42.28
2023-08-17T13:30:16.291Z,40.14
2023-08-17T13:32:44.999Z,40.82
2023-08-17T13:35:15.869Z,39.31
2023-08-17T13:37:43.039Z,38.47
2023-08-17T13:40:11.382Z,37.83
2023-08-17T13:42:42.279Z,35.64
2023-08-17T13:45:09.941Z,35.50
2023-08-17T13:47:37.139Z,34.65
2023-08-17T13:50:07.604Z,34.98
2023-08-17T13:52:34.832Z,34.07
2023-08-17T13:55:02.124Z,33.19
2023-08-17T13:57:29.255Z,33.92
2023-08-17T13:59:59.060Z,35.81
2023-08-17T14:02:29.842Z,33.04
2023-08-17T14:04:58.291Z,31.09
2023-08-17T14:07:25.565Z,29.88
2023-08-17T14:10:05.642Z,28.22
2023-08-17T14:12:34.406Z,24.90
2023-08-17T14:15:04.878Z,23.07
2023-08-17T14:17:31.971Z,26.42
2023-08-17T14:19:59.064Z,26.92
2023-08-17T14:22:26.972Z,22.82
2023-08-17T14:24:54.311Z,26.88
2023-08-17T14:27:21.727Z,26.78
2023-08-17T14:29:48.993Z,25.20
2023-08-17T14:32:18.890Z,21.06
2023-08-17T14:34:46.023Z,23.88
2023-08-17T14:37:13.106Z,21.44
2023-08-17T14:39:41.880Z,22.89
2023-08-17T14:42:09.006Z,18.54
2023-08-17T14:44:41.019Z,18.26
2023-08-17T14:47:08.060Z,17.90
2023-08-17T14:49:37.811Z,17.81
2023-08-17T14:52:06.170Z,18.06
2023-08-17T14:54:33.583Z,17.27
2023-08-17T14:57:00.781Z,17.50
2023-08-17T14:59:27.877Z,16.83
2023-08-17T15:01:55.094Z,15.86
2023-08-17T15:04:25.725Z,16.57
2023-08-17T15:06:56.008Z,15.54
2023-08-17T15:09:23.076Z,15.64
2023-08-17T15:11:55.275Z,19.67
2023-08-17T15:14:25.288Z,25.52
2023-08-17T15:16:59.950Z,26.99
2023-08-17T15:19:39.234Z,30.52
2023-08-17T15:22:15.511Z,30.78
2023-08-17T15:24:43.040Z,30.37
2023-08-17T15:27:10.246Z,29.94
2023-08-17T15:29:37.353Z,29.85
2023-08-17T15:32:04.783Z,31.19
2023-08-17T15:34:31.909Z,32.37
2023-08-17T15:36:58.979Z,33.70
2023-08-17T15:39:28.705Z,36.84
2023-08-17T15:41:57.061Z,38.03
2023-08-17T15:44:24.116Z,38.24
2023-08-17T15:46:52.548Z,39.01
2023-08-17T15:49:22.783Z,39.86
2023-08-17T15:51:50.062Z,38.94
2023-08-17T15:54:29.627Z,40.01
2023-08-17T15:57:04.286Z,39.89
2023-08-17T15:59:31.683Z,40.02
2023-08-17T16:01:58.888Z,41.09
2023-08-17T16:04:26.043Z,41.91
2023-08-17T16:06:53.252Z,42.50
2023-08-17T16:09:21.710Z,42.59
2023-08-17T16:11:48.861Z,42.32
2023-08-17T16:14:18.539Z,43.41
2023-08-17T16:16:45.985Z,43.79
2023-08-17T16:19:13.318Z,43.94
2023-08-17T16:21:40.400Z,44.54
2023-08-17T16:24:07.803Z,45.48
2023-08-17T16:26:35.570Z,44.83
2023-08-17T16:29:02.868Z,46.24
2023-08-17T16:31:35.373Z,46.66
2023-08-17T16:34:02.641Z,46.42
2023-08-17T16:36:29.710Z,47.68
2023-08-17T16:38:56.841Z,47.48
2023-08-17T16:41:24.013Z,48.07
2023-08-17T16:43:51.119Z,48.51
2023-08-17T16:46:18.231Z,48.86
2023-08-17T16:48:47.960Z,48.83
2023-08-17T16:51:15.080Z,48.85
2023-08-17T16:53:44.496Z,48.40
2023-08-17T16:56:11.688Z,48.73
2023-08-17T16:58:40.051Z,48.91
2023-08-17T17:01:14.495Z,49.05
2023-08-17T17:03:43.514Z,48.71
2023-08-17T17:06:13.206Z,45.90
2023-08-17T17:08:40.316Z,44.88
2023-08-17T17:11:07.452Z,45.84
2023-08-17T17:13:34.575Z,44.79
2023-08-17T17:16:01.914Z,45.13
2023-08-17T17:18:29.029Z,47.18
2023-08-17T17:20:56.170Z,47.76
2023-08-17T17:23:25.919Z,48.60
2023-08-17T17:25:53.007Z,48.13
2023-08-17T17:28:20.115Z,49.68
2023-08-17T17:30:47.207Z,50.05
2023-08-17T17:33:14.459Z,50.12
2023-08-17T17:35:41.511Z,50.66
2023-08-17T17:38:08.623Z,51.37
2023-08-17T17:40:38.243Z,51.39
2023-08-17T17:43:05.444Z,51.50
2023-08-17T17:45:32.521Z,51.29
2023-08-17T17:47:59.646Z,51.72
2023-08-17T17:50:26.879Z,52.22
2023-08-17T17:52:53.995Z,53.06
2023-08-17T17:55:21.257Z,53.52
2023-08-17T17:57:50.872Z,53.92
2023-08-17T18:00:18.279Z,54.54
2023-08-17T18:02:45.427Z,55.17
2023-08-17T18:05:12.655Z,55.48
2023-08-17T18:07:39.685Z,55.96
2023-08-17T18:10:08.097Z,55.82
2023-08-17T18:12:35.186Z,56.67
2023-08-17T18:15:06.021Z,56.00
2023-08-17T18:17:33.088Z,55.51
2023-08-17T18:20:00.176Z,56.96
2023-08-17T18:22:27.363Z,57.16
2023-08-17T18:24:54.530Z,56.55
2023-08-17T18:27:21.599Z,56.91
2023-08-17T18:29:51.496Z,58.06
2023-08-17T18:32:21.170Z,58.08
2023-08-17T18:34:48.232Z,58.10
2023-08-17T18:37:15.256Z,57.69
2023-08-17T18:39:42.280Z,58.27
2023-08-17T18:42:09.364Z,57.69
2023-08-17T18:44:36.416Z,58.51
2023-08-17T18:47:03.818Z,58.58
2023-08-17T18:49:33.735Z,59.02
2023-08-17T18:52:00.866Z,60.05
2023-08-17T18:54:27.958Z,60.64
2023-08-17T18:56:55.076Z,60.13
2023-08-17T18:59:22.516Z,61.18
2023-08-17T19:01:49.695Z,60.50
2023-08-17T19:04:16.870Z,61.26
2023-08-17T19:06:46.694Z,61.86
2023-08-17T19:09:13.759Z,62.14
2023-08-17T19:11:40.857Z,61.75
2023-08-17T19:14:07.940Z,61.94
2023-08-17T19:16:35.152Z,63.35
2023-08-17T19:19:07.806Z,63.67
2023-08-17T19:21:34.886Z,63.44
2023-08-17T19:24:04.901Z,63.29
2023-08-17T19:26:32.021Z,63.56
2023-08-17T19:28:59.246Z,63.67
2023-08-17T19:31:26.422Z,64.19
2023-08-17T19:33:55.697Z,64.62
2023-08-17T19:36:22.822Z,65.46
2023-08-17T19:38:49.994Z,65.04
2023-08-17T19:41:19.604Z,65.30
2023-08-17T19:43:46.822Z,65.45
2023-08-17T19:46:14.045Z,66.00
2023-08-17T19:48:41.151Z,65.82
2023-08-17T19:51:08.217Z,66.29
2023-08-17T19:53:35.339Z,66.04
2023-08-17T19:56:02.498Z,66.02
2023-08-17T19:58:32.146Z,66.17
2023-08-17T20:01:04.837Z,66.71
2023-08-17T20:03:32.110Z,66.58
2023-08-17T20:05:59.310Z,66.98
2023-08-17T20:08:26.417Z,66.79
2023-08-17T20:10:53.608Z,66.86
2023-08-17T20:13:20.692Z,67.19
2023-08-17T20:15:54.294Z,67.19
2023-08-17T20:18:21.382Z,66.90
2023-08-17T20:20:51.727Z,66.82
2023-08-17T20:23:18.912Z,67.26
2023-08-17T20:25:46.136Z,68.13
2023-08-17T20:28:13.189Z,68.07
2023-08-17T20:30:40.235Z,69.35
2023-08-17T20:33:10.161Z,68.89
2023-08-17T20:35:37.335Z,68.72
2023-08-17T20:38:04.972Z,68.86
2023-08-17T20:40:32.238Z,69.26
2023-08-17T20:42:59.469Z,68.31
2023-08-17T20:45:26.575Z,68.51
2023-08-17T20:47:54.843Z,68.75
2023-08-17T20:50:24.558Z,69.16
2023-08-17T20:52:51.694Z,69.40
2023-08-17T20:55:18.898Z,69.07
2023-08-17T20:57:45.956Z,69.91
2023-08-17T21:00:13.718Z,69.67
2023-08-17T21:02:41.138Z,69.25
2023-08-17T21:05:09.157Z,68.13
2023-08-17T21:07:38.905Z,68.56
2023-08-17T21:10:07.584Z,68.70
2023-08-17T21:12:34.657Z,69.09
2023-08-17T21:15:01.904Z,68.48
2023-08-17T21:17:29.292Z,68.63
2023-08-17T21:19:56.662Z,69.62
2023-08-17T21:22:23.835Z,69.84
2023-08-17T21:24:54.120Z,69.74
2023-08-17T21:27:21.295Z,69.00
2023-08-17T21:29:48.492Z,69.36
2023-08-17T21:32:15.590Z,69.51
2023-08-17T21:34:42.749Z,69.95
2023-08-17T21:37:10.005Z,69.89
2023-08-17T21:39:37.492Z,71.40
2023-08-17T21:42:07.522Z,71.09
2023-08-17T21:44:34.668Z,71.50
2023-08-17T21:47:01.804Z,72.13
2023-08-17T21:49:28.959Z,71.70
2023-08-17T21:51:56.039Z,70.68
2023-08-17T21:54:23.118Z,71.59
2023-08-17T21:56:50.183Z,70.81
2023-08-17T21:59:19.875Z,71.26
2023-08-17T22:01:47.949Z,71.40
2023-08-17T22:04:15.010Z,71.44
2023-08-17T22:06:42.058Z,71.52
2023-08-17T22:09:09.247Z,71.85
2023-08-17T22:11:36.291Z,70.60
2023-08-17T22:14:03.503Z,69.98
2023-08-17T22:16:33.199Z,70.03
2023-08-17T22:19:00.301Z,71.09
2023-08-17T22:21:27.421Z,71.91
2023-08-17T22:23:54.532Z,71.11
2023-08-17T22:26:21.631Z,70.78
2023-08-17T22:28:48.714Z,70.18
2023-08-17T22:31:15.854Z,71.13
2023-08-17T22:33:45.677Z,71.92
2023-08-17T22:36:12.824Z,72.44
2023-08-17T22:38:40.731Z,73.00
2023-08-17T22:41:07.920Z,73.28
2023-08-17T22:43:35.010Z,72.74
2023-08-17T22:46:03.249Z,72.75
2023-08-17T22:48:30.409Z,73.21
2023-08-17T22:51:00.070Z,72.04
2023-08-17T22:53:27.186Z,72.73
2023-08-17T22:55:54.325Z,72.84
2023-08-17T22:58:21.561Z,72.58
2023-08-17T23:00:51.565Z,72.58
2023-08-17T23:03:18.661Z,72.97
2023-08-17T23:05:45.703Z,73.33
2023-08-17T23:08:15.450Z,73.11
2023-08-17T23:10:42.578Z,73.16
2023-08-17T23:13:09.691Z,73.01
2023-08-17T23:15:36.990Z,74.57
2023-08-17T23:18:04.473Z,74.34
2023-08-17T23:20:34.642Z,74.46
2023-08-17T23:23:01.708Z,74.21
2023-08-17T23:25:31.416Z,74.18
2023-08-17T23:27:58.532Z,74.21
2023-08-17T23:30:25.614Z,74.76
2023-08-17T23:32:52.840Z,74.29
2023-08-17T23:35:19.966Z,74.12
2023-08-17T23:37:47.023Z,74.52
2023-08-17T23:40:14.109Z,74.05
2023-08-17T23:42:44.636Z,74.15
2023-08-17T23:45:11.667Z,74.92
2023-08-17T23:47:38.746Z,74.90
2023-08-17T23:50:06.930Z,74.69
2023-08-17T23:52:34.033Z,75.28
2023-08-17T23:55:01.076Z,75.41
2023-08-17T23:57:28.462Z,75.41
2023-08-17T23:59:58.274Z,75.32
